createdAt,value
2023-04-28T00:01:29.778Z,0.40
2023-04-28T00:03:57.755Z,0.57
2023-04-28T00:06:24.467Z,0.50
2023-04-28T00:08:50.847Z,0.40
2023-04-28T00:11:17.215Z,0.50
2023-04-28T00:13:43.667Z,0.35
2023-04-28T00:16:10.049Z,0.20
2023-04-28T00:18:36.498Z,0.45
2023-04-28T00:21:02.919Z,0.20
2023-04-28T00:23:29.287Z,0.17
2023-04-28T00:25:55.838Z,0.20
2023-04-28T00:28:33.553Z,0.50
2023-04-28T00:31:01.268Z,0.57
2023-04-28T00:33:27.641Z,1.42
2023-04-28T00:36:01.121Z,0.45
2023-04-28T00:38:27.854Z,0.95
2023-04-28T00:40:54.210Z,1.45
2023-04-28T00:43:20.624Z,0.40
2023-04-28T00:45:47.010Z,1.10
2023-04-28T00:48:13.684Z,1.40
2023-04-28T00:50:40.527Z,0.50
2023-04-28T00:53:07.104Z,0.40
2023-04-28T00:55:34.871Z,0.30
2023-04-28T00:58:02.299Z,0.30
2023-04-28T01:00:28.775Z,0.10
2023-04-28T01:02:55.471Z,0.20
2023-04-28T01:05:22.451Z,0.20
2023-04-28T01:07:48.900Z,0.40
2023-04-28T01:10:15.423Z,0.30
2023-04-28T01:12:41.736Z,0.20
2023-04-28T01:15:12.474Z,0.20
2023-04-28T01:17:38.947Z,0.30
2023-04-28T01:20:05.641Z,0.30
2023-04-28T01:22:31.949Z,0.25
2023-04-28T01:25:00.249Z,0.20
2023-04-28T01:27:26.553Z,0.40
2023-04-28T01:29:52.997Z,0.40
2023-04-28T01:32:19.338Z,0.88
2023-04-28T01:34:45.613Z,0.52
2023-04-28T01:37:12.057Z,0.60
2023-04-28T01:39:38.397Z,0.60
2023-04-28T01:42:04.759Z,0.80
2023-04-28T01:44:31.195Z,0.30
2023-04-28T01:46:57.550Z,0.50
2023-04-28T01:49:24.110Z,0.43
2023-04-28T01:51:50.877Z,1.15
2023-04-28T01:54:17.435Z,0.60
2023-04-28T01:56:43.977Z,1.10
2023-04-28T01:59:11.103Z,0.50
2023-04-28T02:01:37.555Z,0.40
2023-04-28T02:04:03.989Z,0.52
2023-04-28T02:06:30.370Z,1.30
2023-04-28T02:08:56.665Z,1.42
2023-04-28T02:11:23.002Z,0.70
2023-04-28T02:13:50.806Z,1.85
2023-04-28T02:16:17.253Z,1.00
2023-04-28T02:18:43.648Z,2.47
2023-04-28T02:21:13.559Z,3.20
2023-04-28T02:23:40.429Z,1.60
2023-04-28T02:26:06.803Z,2.72
2023-04-28T02:28:33.184Z,3.13
2023-04-28T02:31:06.347Z,1.88
2023-04-28T02:33:32.760Z,1.88
2023-04-28T02:36:00.410Z,1.77
2023-04-28T02:38:27.213Z,1.02
2023-04-28T02:41:05.086Z,1.58
2023-04-28T02:43:31.938Z,0.80
2023-04-28T02:45:58.325Z,0.82
2023-04-28T02:48:25.588Z,1.13
2023-04-28T02:50:52.960Z,2.22
2023-04-28T02:53:19.839Z,0.60
2023-04-28T02:55:46.476Z,0.73
2023-04-28T02:58:13.028Z,0.82
2023-04-28T03:00:39.386Z,0.45
2023-04-28T03:03:05.848Z,0.70
2023-04-28T03:05:32.388Z,0.35
2023-04-28T03:07:59.362Z,0.77
2023-04-28T03:10:25.822Z,0.50
2023-04-28T03:12:52.179Z,0.57
2023-04-28T03:15:18.534Z,0.70
2023-04-28T03:17:44.917Z,1.25
2023-04-28T03:20:11.502Z,0.50
2023-04-28T03:22:37.835Z,0.55
2023-04-28T03:25:05.464Z,0.45
2023-04-28T03:27:31.844Z,0.35
2023-04-28T03:29:58.132Z,0.77
2023-04-28T03:32:24.582Z,1.25
2023-04-28T03:34:51.139Z,1.42
2023-04-28T03:37:17.453Z,3.03
2023-04-28T03:39:44.454Z,1.42
2023-04-28T03:42:10.895Z,1.38
2023-04-28T03:44:37.394Z,1.42
2023-04-28T03:47:03.825Z,1.20
2023-04-28T03:49:30.119Z,1.48
2023-04-28T03:51:56.459Z,1.83
2023-04-28T03:54:22.961Z,1.38
2023-04-28T03:56:49.323Z,0.82
2023-04-28T03:59:15.705Z,0.95
2023-04-28T04:01:42.110Z,0.88
2023-04-28T04:04:08.813Z,0.63
2023-04-28T04:06:35.575Z,1.95
2023-04-28T04:09:02.137Z,1.75
2023-04-28T04:11:28.511Z,0.85
2023-04-28T04:13:54.845Z,0.90
2023-04-28T04:16:22.794Z,1.50
2023-04-28T04:18:49.393Z,1.30
2023-04-28T04:21:15.920Z,1.48
2023-04-28T04:23:42.248Z,1.48
2023-04-28T04:26:08.602Z,3.53
2023-04-28T04:28:35.002Z,2.13
2023-04-28T04:31:02.749Z,1.83
2023-04-28T04:33:29.617Z,1.50
2023-04-28T04:35:56.685Z,1.73
2023-04-28T04:38:22.963Z,2.00
2023-04-28T04:40:49.238Z,1.30
2023-04-28T04:43:15.591Z,1.17
2023-04-28T04:45:41.925Z,1.05
2023-04-28T04:48:08.419Z,1.20
2023-04-28T04:50:34.781Z,1.95
2023-04-28T04:53:01.131Z,2.83
2023-04-28T04:55:27.576Z,2.95
2023-04-28T04:57:54.955Z,1.88
2023-04-28T05:00:21.525Z,1.77
2023-04-28T05:02:48.027Z,2.97
2023-04-28T05:05:21.177Z,2.72
2023-04-28T05:07:48.675Z,3.33
2023-04-28T05:10:15.024Z,3.65
2023-04-28T05:12:41.395Z,2.85
2023-04-28T05:15:08.134Z,2.83
2023-04-28T05:17:34.693Z,5.22
2023-04-28T05:20:01.124Z,3.20
2023-04-28T05:22:27.540Z,4.50
2023-04-28T05:24:53.948Z,2.40
2023-04-28T05:27:20.523Z,4.05
2023-04-28T05:29:47.012Z,6.13
2023-04-28T05:32:13.736Z,3.88
2023-04-28T05:34:40.349Z,3.40
2023-04-28T05:37:06.742Z,2.45
2023-04-28T05:39:33.083Z,2.53
2023-04-28T05:41:59.455Z,2.05
2023-04-28T05:44:25.823Z,1.48
2023-04-28T05:46:52.386Z,6.38
2023-04-28T05:49:18.777Z,4.50
2023-04-28T05:51:45.152Z,4.13
2023-04-28T05:54:11.544Z,2.25
2023-04-28T05:56:37.919Z,4.63
2023-04-28T05:59:04.609Z,4.55
2023-04-28T06:01:32.025Z,4.00
2023-04-28T06:03:58.890Z,2.78
2023-04-28T06:06:26.053Z,3.33
2023-04-28T06:08:52.404Z,1.77
2023-04-28T06:11:22.153Z,1.92
2023-04-28T06:13:49.256Z,0.80
2023-04-28T06:16:16.680Z,2.50
2023-04-28T06:18:43.460Z,0.80
2023-04-28T06:21:09.745Z,0.82
2023-04-28T06:23:36.332Z,0.95
2023-04-28T06:26:02.831Z,1.05
2023-04-28T06:28:29.214Z,1.17
2023-04-28T06:30:55.687Z,0.55
2023-04-28T06:33:22.160Z,0.50
2023-04-28T06:35:48.608Z,2.03
2023-04-28T06:38:14.984Z,5.25
2023-04-28T06:40:41.474Z,4.60
2023-04-28T06:43:08.417Z,3.20
2023-04-28T06:45:34.780Z,2.08
2023-04-28T06:48:01.423Z,3.53
2023-04-28T06:50:27.953Z,1.95
2023-04-28T06:52:54.417Z,1.73
2023-04-28T06:55:20.922Z,1.70
2023-04-28T06:57:47.525Z,2.45
2023-04-28T07:00:14.367Z,2.63
2023-04-28T07:02:40.964Z,1.95
2023-04-28T07:05:07.814Z,4.13
2023-04-28T07:07:34.269Z,5.43
2023-04-28T07:10:01.346Z,3.40
2023-04-28T07:12:27.768Z,1.70
2023-04-28T07:14:54.148Z,1.63
2023-04-28T07:17:20.508Z,1.88
2023-04-28T07:19:46.887Z,1.05
2023-04-28T07:22:13.229Z,2.50
2023-04-28T07:24:39.639Z,1.67
2023-04-28T07:27:06.218Z,1.77
2023-04-28T07:29:35.010Z,1.42
2023-04-28T07:32:01.940Z,1.50
2023-04-28T07:34:28.435Z,1.52
2023-04-28T07:36:54.823Z,1.85
2023-04-28T07:39:21.284Z,1.00
2023-04-28T07:41:47.600Z,1.27
2023-04-28T07:44:13.980Z,1.20
2023-04-28T07:46:40.467Z,1.25
2023-04-28T07:49:08.315Z,2.15
2023-04-28T07:51:34.767Z,1.58
2023-04-28T07:54:01.250Z,1.50
2023-04-28T07:56:27.550Z,3.05
2023-04-28T07:58:53.880Z,2.50
2023-04-28T08:01:20.195Z,2.22
2023-04-28T08:03:46.866Z,1.55
2023-04-28T08:06:13.521Z,3.15
2023-04-28T08:08:40.505Z,3.67
2023-04-28T08:11:07.772Z,1.95
2023-04-28T08:13:34.315Z,1.95
2023-04-28T08:16:01.002Z,1.00
2023-04-28T08:18:27.911Z,0.60
2023-04-28T08:20:54.432Z,0.40
2023-04-28T08:23:21.389Z,0.60
2023-04-28T08:25:47.696Z,1.52
2023-04-28T08:28:14.618Z,2.42
2023-04-28T08:30:41.236Z,3.47
2023-04-28T08:33:07.821Z,2.38
2023-04-28T08:35:34.551Z,3.05
2023-04-28T08:38:01.035Z,2.13
2023-04-28T08:40:29.659Z,3.05
2023-04-28T08:42:56.060Z,3.72
2023-04-28T08:45:23.834Z,2.53
2023-04-28T08:47:51.201Z,2.55
2023-04-28T08:50:21.327Z,1.83
2023-04-28T08:52:47.666Z,3.03
2023-04-28T08:55:14.066Z,5.57
2023-04-28T08:57:44.016Z,4.32
2023-04-28T09:00:11.093Z,4.38
2023-04-28T09:02:38.372Z,6.00
2023-04-28T09:05:07.403Z,4.82
2023-04-28T09:07:34.273Z,4.82
2023-04-28T09:10:20.474Z,2.83
2023-04-28T09:12:47.479Z,3.28
2023-04-28T09:15:25.722Z,6.65
2023-04-28T09:17:52.250Z,4.18
2023-04-28T09:20:25.934Z,3.03
2023-04-28T09:22:53.118Z,4.47
2023-04-28T09:25:21.304Z,3.83
2023-04-28T09:27:47.656Z,3.10
2023-04-28T09:30:14.514Z,5.43
2023-04-28T09:32:40.884Z,3.85
2023-04-28T09:35:07.654Z,3.25
2023-04-28T09:37:34.959Z,5.22
2023-04-28T09:40:04.601Z,6.28
2023-04-28T09:42:38.325Z,3.67
2023-04-28T09:45:05.973Z,4.22
2023-04-28T09:47:33.710Z,2.92
2023-04-28T09:50:01.167Z,4.00
2023-04-28T09:52:27.600Z,3.15
2023-04-28T09:54:55.497Z,2.72
2023-04-28T09:57:22.927Z,3.10
2023-04-28T09:59:50.203Z,2.05
2023-04-28T10:02:41.051Z,1.92
2023-04-28T10:05:03.894Z,2.60
2023-04-28T10:07:34.950Z,2.33
2023-04-28T10:10:01.828Z,4.20
2023-04-28T10:12:28.377Z,4.97
2023-04-28T10:14:54.787Z,5.45
2023-04-28T10:17:22.204Z,4.45
2023-04-28T10:19:50.526Z,2.70
2023-04-28T10:22:35.720Z,3.95
2023-04-28T10:25:11.842Z,3.95
2023-04-28T10:27:44.761Z,2.10
2023-04-28T10:30:23.046Z,3.65
2023-04-28T10:33:09.419Z,2.60
2023-04-28T10:35:40.443Z,2.10
2023-04-28T10:38:10.832Z,1.65
2023-04-28T10:40:39.050Z,1.63
2023-04-28T10:43:06.264Z,4.18
2023-04-28T10:45:53.814Z,3.80
2023-04-28T10:48:37.732Z,2.90
2023-04-28T10:51:07.410Z,4.03
2023-04-28T10:53:42.886Z,4.43
2023-04-28T10:56:09.640Z,3.92
2023-04-28T10:58:37.702Z,2.30
2023-04-28T11:01:19.636Z,1.85
2023-04-28T11:03:46.670Z,4.22
2023-04-28T11:06:37.373Z,3.25
2023-04-28T11:09:13.899Z,3.88
2023-04-28T11:12:00.604Z,3.85
2023-04-28T11:14:33.336Z,4.20
2023-04-28T11:17:03.534Z,2.80
2023-04-28T11:19:34.498Z,2.45
2023-04-28T11:22:01.939Z,2.93
2023-04-28T11:24:29.317Z,3.47
2023-04-28T11:26:56.069Z,2.95
2023-04-28T11:29:31.718Z,1.80
2023-04-28T11:31:58.122Z,2.10
2023-04-28T11:34:24.710Z,2.10
2023-04-28T11:36:54.163Z,1.42
2023-04-28T11:39:28.748Z,1.17
2023-04-28T11:41:55.975Z,1.00
2023-04-28T11:44:23.252Z,0.98
2023-04-28T11:47:03.344Z,0.88
2023-04-28T11:49:31.382Z,1.20
2023-04-28T11:52:00.241Z,0.85
2023-04-28T11:54:27.809Z,0.90
2023-04-28T11:56:54.973Z,1.02
2023-04-28T11:59:28.779Z,1.75
2023-04-28T12:01:59.532Z,1.17
2023-04-28T12:04:30.437Z,0.70
2023-04-28T12:07:00.150Z,0.57
2023-04-28T12:09:26.482Z,1.30
2023-04-28T12:11:59.929Z,0.80
2023-04-28T12:14:26.448Z,1.60
2023-04-28T12:16:53.122Z,0.80
2023-04-28T12:19:20.913Z,0.80
2023-04-28T12:22:00.958Z,0.70
2023-04-28T12:24:27.411Z,0.60
2023-04-28T12:26:54.559Z,0.55
2023-04-28T12:29:40.349Z,1.08
2023-04-28T12:32:10.814Z,0.80
2023-04-28T12:34:37.799Z,0.55
2023-04-28T12:37:05.956Z,0.28
2023-04-28T12:39:33.392Z,0.30
2023-04-28T12:41:59.943Z,0.60
2023-04-28T12:44:28.174Z,0.30
2023-04-28T12:46:55.159Z,0.43
2023-04-28T12:49:21.747Z,0.20
2023-04-28T12:51:48.180Z,0.70
2023-04-28T12:54:14.539Z,0.50
2023-04-28T12:56:41.096Z,0.40
2023-04-28T12:59:07.437Z,0.77
2023-04-28T13:01:33.933Z,0.50
2023-04-28T13:04:00.763Z,0.70
2023-04-28T13:06:28.138Z,0.60
2023-04-28T13:08:54.739Z,0.60
2023-04-28T13:11:23.098Z,0.50
2023-04-28T13:13:49.666Z,0.50
2023-04-28T13:16:16.111Z,0.47
2023-04-28T13:18:42.510Z,0.60
2023-04-28T13:21:08.892Z,0.52
2023-04-28T13:23:35.390Z,0.90
2023-04-28T13:26:01.859Z,1.17
2023-04-28T13:28:28.885Z,1.15
2023-04-28T13:30:55.394Z,1.27
2023-04-28T13:33:21.749Z,0.73
2023-04-28T13:35:48.149Z,0.52
2023-04-28T13:38:14.588Z,0.50
2023-04-28T13:40:42.360Z,0.40
2023-04-28T13:43:08.791Z,0.60
2023-04-28T13:45:35.305Z,0.40
2023-04-28T13:48:02.060Z,0.50
2023-04-28T13:50:28.454Z,0.30
2023-04-28T13:52:54.874Z,0.93
2023-04-28T13:55:27.564Z,2.03
2023-04-28T13:57:55.273Z,2.38
2023-04-28T14:00:22.397Z,2.38
2023-04-28T14:02:50.610Z,1.30
2023-04-28T14:05:17.349Z,0.82
2023-04-28T14:07:44.455Z,3.08
2023-04-28T14:10:11.942Z,4.38
2023-04-28T14:12:38.681Z,1.38
2023-04-28T14:15:05.810Z,1.23
2023-04-28T14:17:32.638Z,3.67
2023-04-28T14:19:59.767Z,1.25
2023-04-28T14:22:26.099Z,0.90
2023-04-28T14:24:53.443Z,1.83
2023-04-28T14:27:20.427Z,0.88
2023-04-28T14:29:49.732Z,2.08
2023-04-28T14:32:16.689Z,1.65
2023-04-28T14:34:43.227Z,0.50
2023-04-28T14:37:09.690Z,0.60
2023-04-28T14:39:37.214Z,0.65
2023-04-28T14:42:03.935Z,0.70
2023-04-28T14:44:30.561Z,1.13
2023-04-28T14:46:56.900Z,0.95
2023-04-28T14:49:23.786Z,0.60
2023-04-28T14:51:50.491Z,0.63
2023-04-28T14:54:16.856Z,0.40
2023-04-28T14:56:43.205Z,1.25
2023-04-28T14:59:09.911Z,2.28
2023-04-28T15:01:36.283Z,3.70
2023-04-28T15:04:03.020Z,1.73
2023-04-28T15:06:29.720Z,0.82
2023-04-28T15:08:56.180Z,2.45
2023-04-28T15:11:22.537Z,1.63
2023-04-28T15:13:48.832Z,1.15
2023-04-28T15:16:16.204Z,0.90
2023-04-28T15:18:44.513Z,1.50
2023-04-28T15:21:11.460Z,1.10
2023-04-28T15:23:37.948Z,1.67
2023-04-28T15:26:04.937Z,2.72
2023-04-28T15:28:31.245Z,2.42
2023-04-28T15:30:57.757Z,3.22
2023-04-28T15:33:24.330Z,2.58
2023-04-28T15:35:50.826Z,1.55
2023-04-28T15:38:18.290Z,0.93
2023-04-28T15:40:45.875Z,1.50
2023-04-28T15:43:13.354Z,2.58
2023-04-28T15:45:40.056Z,1.90
2023-04-28T15:48:06.664Z,2.60
2023-04-28T15:50:33.283Z,1.25
2023-04-28T15:52:59.886Z,0.80
2023-04-28T15:55:26.306Z,0.80
2023-04-28T15:57:52.921Z,0.50
2023-04-28T16:00:19.564Z,0.80
2023-04-28T16:02:46.678Z,2.05
2023-04-28T16:05:13.504Z,2.17
2023-04-28T16:07:43.008Z,1.20
2023-04-28T16:10:10.669Z,2.17
2023-04-28T16:12:37.470Z,1.52
2023-04-28T16:15:04.133Z,1.20
2023-04-28T16:17:30.857Z,1.20
2023-04-28T16:19:57.449Z,0.60
2023-04-28T16:22:23.973Z,0.65
2023-04-28T16:24:50.952Z,2.22
2023-04-28T16:27:17.521Z,1.70
2023-04-28T16:29:43.975Z,2.65
2023-04-28T16:32:10.476Z,1.85
2023-04-28T16:34:36.878Z,2.25
2023-04-28T16:37:03.469Z,1.27
2023-04-28T16:39:31.037Z,2.53
2023-04-28T16:42:01.036Z,4.30
2023-04-28T16:44:28.493Z,4.43
2023-04-28T16:46:54.783Z,2.60
2023-04-28T16:49:21.313Z,2.72
2023-04-28T16:51:57.573Z,2.33
2023-04-28T16:54:28.240Z,1.40
2023-04-28T16:56:55.522Z,1.67
2023-04-28T16:59:22.263Z,1.48
2023-04-28T17:01:48.768Z,1.23
2023-04-28T17:04:15.360Z,1.55
2023-04-28T17:06:41.836Z,0.50
2023-04-28T17:09:09.723Z,0.43
2023-04-28T17:11:39.095Z,0.88
2023-04-28T17:14:05.566Z,0.40
2023-04-28T17:16:32.675Z,0.35
2023-04-28T17:18:59.379Z,0.30
2023-04-28T17:21:28.683Z,0.20
2023-04-28T17:23:58.864Z,0.20
2023-04-28T17:26:25.851Z,0.20
2023-04-28T17:28:52.786Z,0.10
2023-04-28T17:31:19.407Z,0.38
2023-04-28T17:33:46.624Z,0.50
2023-04-28T17:36:12.950Z,0.38
2023-04-28T17:38:39.368Z,0.28
2023-04-28T17:41:05.716Z,0.20
2023-04-28T17:43:32.690Z,0.20
2023-04-28T17:45:59.036Z,0.30
2023-04-28T17:48:25.480Z,0.20
2023-04-28T17:50:52.514Z,0.28
2023-04-28T17:53:19.209Z,0.30
2023-04-28T17:55:45.622Z,0.32
2023-04-28T17:58:12.340Z,0.40
2023-04-28T18:00:38.815Z,0.20
2023-04-28T18:03:05.369Z,0.20
2023-04-28T18:05:32.516Z,0.20
2023-04-28T18:08:06.397Z,0.40
2023-04-28T18:10:32.707Z,0.55
2023-04-28T18:12:59.246Z,0.47
2023-04-28T18:15:26.133Z,0.60
2023-04-28T18:17:52.596Z,0.68
2023-04-28T18:20:19.293Z,0.80
2023-04-28T18:22:45.799Z,2.00
2023-04-28T18:25:16.709Z,1.50
2023-04-28T18:27:43.218Z,1.57
2023-04-28T18:30:09.829Z,1.70
2023-04-28T18:32:36.302Z,1.02
2023-04-28T18:35:02.763Z,1.50
2023-04-28T18:37:30.510Z,1.38
2023-04-28T18:39:57.488Z,3.17
2023-04-28T18:42:24.578Z,2.45
2023-04-28T18:44:55.375Z,2.45
2023-04-28T18:47:21.886Z,4.38
2023-04-28T18:49:48.875Z,6.00
2023-04-28T18:52:15.537Z,4.43
2023-04-28T18:54:42.695Z,4.78
2023-04-28T18:57:09.334Z,5.07
2023-04-28T18:59:35.818Z,2.28
2023-04-28T19:02:02.536Z,2.13
2023-04-28T19:04:29.701Z,1.80
2023-04-28T19:06:57.146Z,1.63
2023-04-28T19:09:23.487Z,1.80
2023-04-28T19:11:50.070Z,2.38
2023-04-28T19:14:16.514Z,1.60
2023-04-28T19:16:43.261Z,1.27
2023-04-28T19:19:09.886Z,0.80
2023-04-28T19:21:41.441Z,0.70
2023-04-28T19:24:07.999Z,0.75
2023-04-28T19:26:35.071Z,1.05
2023-04-28T19:29:02.116Z,0.60
2023-04-28T19:31:30.145Z,0.50
2023-04-28T19:33:57.470Z,0.52
2023-04-28T19:36:24.244Z,0.40
2023-04-28T19:38:50.732Z,0.52
2023-04-28T19:41:17.545Z,0.70
2023-04-28T19:43:43.962Z,0.52
2023-04-28T19:46:10.363Z,0.30
2023-04-28T19:48:36.886Z,0.30
2023-04-28T19:51:03.267Z,0.60
2023-04-28T19:53:29.830Z,0.40
2023-04-28T19:55:58.841Z,0.30
2023-04-28T19:58:25.308Z,0.30
2023-04-28T20:00:53.643Z,0.30
2023-04-28T20:03:20.243Z,1.40
2023-04-28T20:05:47.173Z,0.40
2023-04-28T20:08:13.834Z,0.40
2023-04-28T20:10:40.402Z,0.20
2023-04-28T20:13:07.188Z,0.25
2023-04-28T20:15:33.654Z,0.20
2023-04-28T20:18:00.572Z,0.13
2023-04-28T20:20:26.962Z,0.20
2023-04-28T20:22:53.576Z,0.20
2023-04-28T20:25:20.147Z,0.20
2023-04-28T20:27:48.026Z,0.10
2023-04-28T20:30:14.470Z,0.10
2023-04-28T20:32:41.268Z,0.17
2023-04-28T20:35:07.869Z,0.30
2023-04-28T20:37:34.238Z,0.20
2023-04-28T20:40:00.711Z,0.30
2023-04-28T20:42:28.279Z,0.20
2023-04-28T20:44:54.847Z,0.20
2023-04-28T20:47:21.153Z,0.40
2023-04-28T20:49:47.588Z,0.30
2023-04-28T20:52:13.928Z,0.30
2023-04-28T20:54:40.634Z,0.20
2023-04-28T20:57:09.224Z,0.30
2023-04-28T20:59:36.801Z,0.20
2023-04-28T21:02:03.345Z,0.20
2023-04-28T21:04:29.776Z,0.20
2023-04-28T21:06:56.186Z,0.20
2023-04-28T21:09:25.297Z,0.45
2023-04-28T21:11:51.913Z,0.30
2023-04-28T21:14:18.270Z,0.30
2023-04-28T21:16:44.744Z,0.38
2023-04-28T21:19:11.147Z,0.30
2023-04-28T21:21:38.111Z,0.30
2023-04-28T21:24:05.324Z,0.40
2023-04-28T21:26:31.708Z,0.50
2023-04-28T21:28:58.123Z,0.38
2023-04-28T21:31:25.451Z,0.50
2023-04-28T21:33:51.907Z,0.47
2023-04-28T21:36:18.249Z,0.35
2023-04-28T21:38:44.842Z,0.30
2023-04-28T21:41:12.479Z,0.70
2023-04-28T21:43:39.448Z,0.40
2023-04-28T21:46:05.918Z,0.40
2023-04-28T21:48:32.260Z,0.38
2023-04-28T21:50:59.526Z,0.45
2023-04-28T21:53:25.982Z,0.32
2023-04-28T21:55:52.429Z,0.40
2023-04-28T21:58:18.812Z,0.50
2023-04-28T22:00:48.047Z,0.75
2023-04-28T22:03:15.505Z,0.60
2023-04-28T22:05:42.479Z,0.50
2023-04-28T22:08:09.046Z,0.50
2023-04-28T22:10:36.435Z,0.50
2023-04-28T22:13:03.045Z,0.50
2023-04-28T22:15:29.469Z,0.75
2023-04-28T22:17:56.036Z,0.38
2023-04-28T22:20:22.502Z,0.65
2023-04-28T22:22:49.006Z,0.50
2023-04-28T22:25:15.666Z,0.40
2023-04-28T22:27:42.029Z,0.43
2023-04-28T22:30:09.606Z,0.60
2023-04-28T22:32:36.116Z,0.55
2023-04-28T22:35:02.547Z,0.70
2023-04-28T22:37:28.927Z,0.50
2023-04-28T22:39:55.269Z,0.82
2023-04-28T22:42:21.621Z,1.00
2023-04-28T22:44:48.033Z,0.70
2023-04-28T22:47:15.177Z,1.00
2023-04-28T22:49:41.574Z,1.75
2023-04-28T22:52:07.926Z,0.40
2023-04-28T22:54:34.477Z,0.68
2023-04-28T22:57:00.910Z,0.50
2023-04-28T22:59:27.336Z,0.65
2023-04-28T23:01:54.799Z,0.55
2023-04-28T23:04:22.106Z,0.50
2023-04-28T23:06:48.603Z,0.47
2023-04-28T23:09:15.111Z,0.50
2023-04-28T23:11:41.502Z,0.40
2023-04-28T23:14:07.959Z,1.40
2023-04-28T23:16:34.409Z,0.40
2023-04-28T23:19:00.912Z,0.60
2023-04-28T23:21:28.783Z,0.70
2023-04-28T23:23:55.362Z,0.82
2023-04-28T23:26:21.753Z,0.90
2023-04-28T23:28:48.476Z,0.70
2023-04-28T23:31:15.005Z,0.70
2023-04-28T23:33:41.381Z,1.02
2023-04-28T23:36:07.972Z,1.05
2023-04-28T23:38:35.052Z,1.13
2023-04-28T23:41:01.482Z,1.48
2023-04-28T23:43:28.109Z,1.00
2023-04-28T23:45:54.620Z,1.00
2023-04-28T23:48:20.976Z,0.95
2023-04-28T23:50:47.360Z,0.85
2023-04-28T23:53:14.059Z,0.70
2023-04-28T23:55:40.842Z,0.90
2023-04-28T23:58:07.176Z,3.08
